createdAt,value
2023-05-10T00:00:36.604Z,7.30
2023-05-10T00:10:36.596Z,8.40
2023-05-10T00:15:36.618Z,8.40
2023-05-10T00:45:36.619Z,12.50
2023-05-10T00:50:36.594Z,14.70
2023-05-10T00:55:36.592Z,14.70
2023-05-10T01:00:36.622Z,14.70
2023-05-10T01:10:36.593Z,14.80
2023-05-10T01:30:36.601Z,15.10
2023-05-10T01:50:36.600Z,15.00
2023-05-10T02:00:36.658Z,15.00
2023-05-10T02:05:36.600Z,14.90
2023-05-10T02:15:36.627Z,14.90
2023-05-10T02:35:36.633Z,15.50
2023-05-10T02:40:36.634Z,15.50
2023-05-10T02:45:36.646Z,15.50
2023-05-10T02:55:36.652Z,15.90
2023-05-10T03:05:36.634Z,17.70
2023-05-10T03:20:36.644Z,20.90
2023-05-10T03:35:36.653Z,21.40
2023-05-10T04:00:36.661Z,21.20
2023-05-10T04:20:36.685Z,19.40
2023-05-10T04:25:36.666Z,19.40
2023-05-10T04:30:36.698Z,19.40
2023-05-10T04:35:36.653Z,17.20
2023-05-10T04:55:36.683Z,16.00
2023-05-10T05:00:36.673Z,16.00
2023-05-10T05:05:36.690Z,16.80
2023-05-10T05:10:36.713Z,16.80
2023-05-10T05:15:36.670Z,16.80
2023-05-10T05:20:36.681Z,16.90
2023-05-10T05:25:36.672Z,16.90
2023-05-10T05:35:36.681Z,17.10
2023-05-10T05:40:36.685Z,17.10
2023-05-10T05:50:36.688Z,16.30
2023-05-10T05:55:36.710Z,16.30
2023-05-10T06:00:36.692Z,16.30
2023-05-10T06:05:36.713Z,15.80
2023-05-10T06:15:36.713Z,15.80
2023-05-10T06:20:36.715Z,16.60
2023-05-10T06:25:36.716Z,16.60
2023-05-10T06:30:36.701Z,16.60
2023-05-10T06:35:36.720Z,17.40
2023-05-10T06:40:36.697Z,17.40
2023-05-10T06:45:36.729Z,17.40
2023-05-10T06:55:36.722Z,17.60
2023-05-10T07:00:36.736Z,17.60
2023-05-10T07:15:36.744Z,18.40
2023-05-10T07:20:36.705Z,19.10
2023-05-10T07:25:36.750Z,19.10
2023-05-10T07:30:36.773Z,19.10
2023-05-10T07:35:36.743Z,17.50
2023-05-10T07:40:36.717Z,17.50
2023-05-10T07:45:36.754Z,17.50
2023-05-10T07:50:36.736Z,20.60
2023-05-10T07:55:36.796Z,20.60
2023-05-10T08:05:36.750Z,20.00
2023-05-10T08:10:36.758Z,20.00
2023-05-10T08:15:36.769Z,20.00
2023-05-10T08:20:36.749Z,20.50
2023-05-10T08:25:36.744Z,20.50
2023-05-10T08:30:36.743Z,20.50
2023-05-10T08:35:36.740Z,21.40
2023-05-10T08:40:36.751Z,21.40
2023-05-10T08:45:36.900Z,21.40
2023-05-10T08:50:36.769Z,17.20
2023-05-10T08:55:36.742Z,17.20
2023-05-10T09:00:36.821Z,17.20
2023-05-10T09:05:36.760Z,16.70
2023-05-10T09:10:36.762Z,16.70
2023-05-10T09:15:36.801Z,16.70
2023-05-10T09:20:36.767Z,12.50
2023-05-10T09:25:36.763Z,12.50
2023-05-10T09:30:36.824Z,12.50
2023-05-10T09:35:36.767Z,9.30
2023-05-10T09:40:36.792Z,9.30
2023-05-10T09:45:38.536Z,9.30
2023-05-10T09:50:36.792Z,7.90
2023-05-10T09:55:36.768Z,7.90
2023-05-10T10:00:36.791Z,7.90
2023-05-10T10:05:36.800Z,6.10
2023-05-10T10:10:36.784Z,6.10
2023-05-10T10:15:36.876Z,6.10
2023-05-10T10:20:36.792Z,5.50
2023-05-10T10:25:36.794Z,5.50
2023-05-10T10:30:36.820Z,5.50
2023-05-10T10:35:36.790Z,5.20
2023-05-10T10:40:36.795Z,5.20
2023-05-10T10:45:36.790Z,5.20
2023-05-10T10:50:36.800Z,4.80
2023-05-10T10:55:36.784Z,4.80
2023-05-10T11:00:36.833Z,4.80
2023-05-10T11:05:36.796Z,5.60
2023-05-10T11:10:36.820Z,5.60
2023-05-10T11:15:36.812Z,5.60
2023-05-10T11:20:36.799Z,6.80
2023-05-10T11:25:36.818Z,6.80
2023-05-10T11:30:36.847Z,6.80
2023-05-10T11:35:36.826Z,6.10
2023-05-10T11:40:36.821Z,6.10
2023-05-10T11:45:36.820Z,6.10
2023-05-10T11:50:36.860Z,4.90
2023-05-10T11:55:36.815Z,4.90
2023-05-10T12:00:36.902Z,4.90
2023-05-10T12:05:36.801Z,6.60
2023-05-10T12:10:36.845Z,6.60
2023-05-10T12:15:36.831Z,6.60
2023-05-10T12:20:36.824Z,5.60
2023-05-10T12:30:36.833Z,5.60
2023-05-10T12:35:36.836Z,4.50
2023-05-10T12:40:36.941Z,4.50
2023-05-10T12:45:36.860Z,4.50
2023-05-10T12:50:36.831Z,5.00
2023-05-10T12:55:36.850Z,5.00
2023-05-10T13:00:36.840Z,5.00
2023-05-10T13:05:36.841Z,4.90
2023-05-10T13:10:36.842Z,4.90
2023-05-10T13:15:36.841Z,4.90
2023-05-10T13:20:36.847Z,4.40
2023-05-10T13:25:36.843Z,4.40
2023-05-10T13:30:36.861Z,4.40
2023-05-10T13:35:36.857Z,4.70
2023-05-10T13:40:36.870Z,4.70
2023-05-10T13:45:36.843Z,4.70
2023-05-10T13:50:36.871Z,4.20
2023-05-10T13:55:36.858Z,4.20
2023-05-10T14:00:36.871Z,4.20
2023-05-10T14:05:36.869Z,6.50
2023-05-10T14:10:36.886Z,6.50
2023-05-10T14:15:36.870Z,6.50
2023-05-10T14:20:36.885Z,6.40
2023-05-10T14:25:36.886Z,6.40
2023-05-10T14:30:36.887Z,6.40
2023-05-10T14:40:36.892Z,8.60
2023-05-10T14:45:36.899Z,8.60
2023-05-10T14:50:37.671Z,6.90
2023-05-10T14:55:36.880Z,6.90
2023-05-10T15:00:36.881Z,6.90
2023-05-10T15:05:36.890Z,8.30
2023-05-10T15:15:36.909Z,8.30
2023-05-10T15:20:36.887Z,3.80
2023-05-10T15:30:36.898Z,3.80
2023-05-10T15:35:36.923Z,3.70
2023-05-10T15:40:36.894Z,3.70
2023-05-10T15:45:37.834Z,3.70
2023-05-10T15:50:36.909Z,2.80
2023-05-10T15:55:36.896Z,2.80
2023-05-10T16:00:37.066Z,2.80
2023-05-10T16:10:36.938Z,2.10
2023-05-10T16:15:36.934Z,2.10
2023-05-10T16:20:36.926Z,1.90
2023-05-10T16:25:36.934Z,1.90
2023-05-10T16:35:36.911Z,1.60
2023-05-10T16:40:36.961Z,1.60
2023-05-10T16:45:36.926Z,1.60
2023-05-10T16:50:36.943Z,1.60
2023-05-10T16:55:36.919Z,1.60
2023-05-10T17:00:36.957Z,1.60
2023-05-10T17:05:36.953Z,1.80
2023-05-10T17:10:36.941Z,1.80
2023-05-10T17:25:36.941Z,1.70
2023-05-10T17:30:36.961Z,1.70
2023-05-10T17:35:36.945Z,1.40
2023-05-10T17:40:36.967Z,1.40
2023-05-10T17:45:37.020Z,1.40
2023-05-10T17:55:36.961Z,1.60
2023-05-10T18:00:36.968Z,1.60
2023-05-10T18:10:38.164Z,1.80
2023-05-10T18:15:36.980Z,1.80
2023-05-10T18:20:36.971Z,1.90
2023-05-10T18:25:36.973Z,1.90
2023-05-10T18:30:36.983Z,1.90
2023-05-10T18:35:36.966Z,2.10
2023-05-10T18:40:36.961Z,2.10
2023-05-10T18:45:36.994Z,2.10
2023-05-10T18:50:36.974Z,2.00
2023-05-10T18:55:37.011Z,2.00
2023-05-10T19:00:37.001Z,2.00
2023-05-10T19:05:36.977Z,2.50
2023-05-10T19:10:36.990Z,2.50
2023-05-10T19:25:37.052Z,3.20
2023-05-10T19:30:36.985Z,3.20
2023-05-10T19:35:37.318Z,2.90
2023-05-10T19:45:37.003Z,2.90
2023-05-10T19:50:37.024Z,3.00
2023-05-10T20:20:37.017Z,4.50
2023-05-10T20:35:37.036Z,3.60
2023-05-10T20:50:37.038Z,4.00
2023-05-10T21:00:37.037Z,4.00
2023-05-10T21:05:37.017Z,4.10
2023-05-10T21:10:37.057Z,4.10
2023-05-10T21:15:37.063Z,4.10
2023-05-10T21:20:37.041Z,3.70
2023-05-10T21:25:37.054Z,3.70
2023-05-10T21:35:37.083Z,4.30
2023-05-10T21:40:37.081Z,4.30
2023-05-10T21:45:37.068Z,4.30
2023-05-10T21:50:37.066Z,5.60
2023-05-10T21:55:37.081Z,5.60
2023-05-10T22:10:37.086Z,7.90
2023-05-10T22:20:37.048Z,9.20
2023-05-10T22:30:37.074Z,9.20
2023-05-10T22:35:37.063Z,9.20
2023-05-10T22:45:37.057Z,9.20
2023-05-10T22:50:37.091Z,9.20
2023-05-10T23:05:37.076Z,10.00
2023-05-10T23:20:37.073Z,11.00
2023-05-10T23:30:37.080Z,11.00
2023-05-10T23:40:37.102Z,12.10
2023-05-10T23:45:37.129Z,12.10
2023-05-10T23:55:37.086Z,13.40
